sensor_id;sensor_type;location;lat;lon;timestamp;pressure;altitude;pressure_sealevel;temperature;humidity
47670;BME280;33408;52.062;11.722;2023-04-10T00:00:08;102135.31;;;5.40;100.00
47670;BME280;33408;52.062;11.722;2023-04-10T00:02:35;102140.63;;;5.46;100.00
47670;BME280;33408;52.062;11.722;2023-04-10T00:05:05;102141.47;;;5.46;100.00
47670;BME280;33408;52.062;11.722;2023-04-10T00:07:32;102133.84;;;5.50;100.00
47670;BME280;33408;52.062;11.722;2023-04-10T00:09:58;102138.09;;;5.47;100.00
47670;BME280;33408;52.062;11.722;2023-04-10T00:12:28;102135.19;;;5.35;100.00
47670;BME280;33408;52.062;11.722;2023-04-10T00:15:07;102138.69;;;5.05;100.00
47670;BME280;33408;52.062;11.722;2023-04-10T00:17:40;102134.56;;;5.10;100.00
47670;BME280;33408;52.062;11.722;2023-04-10T00:20:32;102134.41;;;5.04;100.00
47670;BME280;33408;52.062;11.722;2023-04-10T00:23:26;102125.34;;;4.87;100.00
47670;BME280;33408;52.062;11.722;2023-04-10T00:26:17;102123.09;;;4.98;100.00
47670;BME280;33408;52.062;11.722;2023-04-10T00:28:52;102130.41;;;4.84;100.00
47670;BME280;33408;52.062;11.722;2023-04-10T00:31:18;102125.09;;;5.09;100.00
47670;BME280;33408;52.062;11.722;2023-04-10T00:33:45;102128.44;;;5.07;100.00
47670;BME280;33408;52.062;11.722;2023-04-10T00:36:13;102117.38;;;5.09;100.00
47670;BME280;33408;52.062;11.722;2023-04-10T00:38:40;102121.78;;;4.82;100.00
47670;BME280;33408;52.062;11.722;2023-04-10T00:41:06;102116.22;;;4.98;100.00
47670;BME280;33408;52.062;11.722;2023-04-10T00:43:33;102116.88;;;4.91;100.00
47670;BME280;33408;52.062;11.722;2023-04-10T00:46:00;102117.50;;;4.82;100.00
47670;BME280;33408;52.062;11.722;2023-04-10T00:48:26;102108.44;;;4.95;100.00
47670;BME280;33408;52.062;11.722;2023-04-10T00:50:53;102108.44;;;4.95;100.00
47670;BME280;33408;52.062;11.722;2023-04-10T00:53:21;102108.19;;;4.86;100.00
47670;BME280;33408;52.062;11.722;2023-04-10T00:55:48;102104.72;;;4.84;100.00
47670;BME280;33408;52.062;11.722;2023-04-10T00:58:15;102109.41;;;4.68;100.00
47670;BME280;33408;52.062;11.722;2023-04-10T01:00:42;102106.03;;;4.69;100.00
47670;BME280;33408;52.062;11.722;2023-04-10T01:03:09;102104.84;;;4.58;100.00
47670;BME280;33408;52.062;11.722;2023-04-10T01:05:41;102102.88;;;4.48;100.00
47670;BME280;33408;52.062;11.722;2023-04-10T01:08:16;102101.63;;;4.35;100.00
47670;BME280;33408;52.062;11.722;2023-04-10T01:10:53;102103.84;;;4.53;100.00
47670;BME280;33408;52.062;11.722;2023-04-10T01:13:22;102098.19;;;4.34;100.00
47670;BME280;33408;52.062;11.722;2023-04-10T01:16:00;102096.28;;;4.27;100.00
47670;BME280;33408;52.062;11.722;2023-04-10T01:18:32;102100.13;;;4.13;100.00
47670;BME280;33408;52.062;11.722;2023-04-10T01:21:04;102099.69;;;3.99;100.00
47670;BME280;33408;52.062;11.722;2023-04-10T01:23:53;102100.44;;;3.68;100.00
47670;BME280;33408;52.062;11.722;2023-04-10T01:26:48;102104.81;;;3.72;100.00
47670;BME280;33408;52.062;11.722;2023-04-10T01:29:20;102101.44;;;3.73;100.00
47670;BME280;33408;52.062;11.722;2023-04-10T01:31:52;102109.75;;;3.91;100.00
47670;BME280;33408;52.062;11.722;2023-04-10T01:34:21;102106.34;;;3.92;100.00
47670;BME280;33408;52.062;11.722;2023-04-10T01:36:54;102106.44;;;4.24;100.00
47670;BME280;33408;52.062;11.722;2023-04-10T01:39:22;102109.38;;;4.08;100.00
47670;BME280;33408;52.062;11.722;2023-04-10T01:41:51;102105.97;;;4.09;100.00
47670;BME280;33408;52.062;11.722;2023-04-10T01:44:20;102110.97;;;4.04;100.00
47670;BME280;33408;52.062;11.722;2023-04-10T01:46:51;102104.63;;;3.93;100.00
47670;BME280;33408;52.062;11.722;2023-04-10T01:49:19;102103.47;;;3.83;100.00
47670;BME280;33408;52.062;11.722;2023-04-10T01:51:47;102107.16;;;3.64;100.00
47670;BME280;33408;52.062;11.722;2023-04-10T01:54:15;102108.47;;;3.51;100.00
47670;BME280;33408;52.062;11.722;2023-04-10T01:56:42;102105.81;;;3.75;100.00
47670;BME280;33408;52.062;11.722;2023-04-10T01:59:10;102100.03;;;3.82;100.00
47670;BME280;33408;52.062;11.722;2023-04-10T02:01:38;102100.16;;;3.86;100.00
47670;BME280;33408;52.062;11.722;2023-04-10T02:04:05;102100.19;;;3.87;100.00
47670;BME280;33408;52.062;11.722;2023-04-10T02:06:39;102100.28;;;3.90;100.00
47670;BME280;33408;52.062;11.722;2023-04-10T02:09:13;102101.66;;;3.79;100.00
47670;BME280;33408;52.062;11.722;2023-04-10T02:11:46;102103.66;;;3.62;100.00
47670;BME280;33408;52.062;11.722;2023-04-10T02:14:16;102100.53;;;3.71;100.00
47670;BME280;33408;52.062;11.722;2023-04-10T02:16:45;102106.81;;;3.80;100.00
47670;BME280;33408;52.062;11.722;2023-04-10T02:19:12;102106.38;;;3.67;100.00
47670;BME280;33408;52.062;11.722;2023-04-10T02:21:40;102110.34;;;3.84;100.00
47670;BME280;33408;52.062;11.722;2023-04-10T02:24:08;102107.84;;;3.86;100.00
47670;BME280;33408;52.062;11.722;2023-04-10T02:26:43;102112.91;;;3.84;100.00
47670;BME280;33408;52.062;11.722;2023-04-10T02:29:10;102115.19;;;3.75;100.00
47670;BME280;33408;52.062;11.722;2023-04-10T02:31:37;102114.72;;;3.59;100.00
47670;BME280;33408;52.062;11.722;2023-04-10T02:34:05;102111.41;;;3.63;100.00
47670;BME280;33408;52.062;11.722;2023-04-10T02:36:32;102114.59;;;3.56;100.00
47670;BME280;33408;52.062;11.722;2023-04-10T02:38:59;102115.81;;;3.68;100.00
47670;BME280;33408;52.062;11.722;2023-04-10T02:41:26;102117.22;;;3.58;100.00
47670;BME280;33408;52.062;11.722;2023-04-10T02:43:52;102119.00;;;3.60;100.00
47670;BME280;33408;52.062;11.722;2023-04-10T02:46:19;102124.22;;;3.63;100.00
47670;BME280;33408;52.062;11.722;2023-04-10T02:48:45;102125.19;;;3.40;100.00
47670;BME280;33408;52.062;11.722;2023-04-10T02:51:14;102115.94;;;3.45;100.00
47670;BME280;33408;52.062;11.722;2023-04-10T02:53:41;102119.63;;;3.27;100.00
47670;BME280;33408;52.062;11.722;2023-04-10T02:56:07;102117.88;;;3.52;100.00
47670;BME280;33408;52.062;11.722;2023-04-10T02:58:36;102118.34;;;3.40;100.00
47670;BME280;33408;52.062;11.722;2023-04-10T03:01:04;102119.63;;;3.27;100.00
47670;BME280;33408;52.062;11.722;2023-04-10T03:03:31;102117.78;;;3.23;100.00
47670;BME280;33408;52.062;11.722;2023-04-10T03:05:58;102122.03;;;3.23;100.00
47670;BME280;33408;52.062;11.722;2023-04-10T03:08:26;102122.63;;;2.90;100.00
47670;BME280;33408;52.062;11.722;2023-04-10T03:10:54;102121.50;;;3.07;100.00
47670;BME280;33408;52.062;11.722;2023-04-10T03:13:21;102119.16;;;3.14;100.00
47670;BME280;33408;52.062;11.722;2023-04-10T03:15:48;102114.06;;;3.15;100.00
47670;BME280;33408;52.062;11.722;2023-04-10T03:18:15;102114.69;;;3.08;100.00
47670;BME280;33408;52.062;11.722;2023-04-10T03:20:41;102113.91;;;3.10;100.00
47670;BME280;33408;52.062;11.722;2023-04-10T03:23:08;102108.91;;;3.39;100.00
47670;BME280;33408;52.062;11.722;2023-04-10T03:25:36;102109.16;;;3.47;100.00
47670;BME280;33408;52.062;11.722;2023-04-10T03:28:03;102106.13;;;3.33;100.00
47670;BME280;33408;52.062;11.722;2023-04-10T03:30:29;102105.28;;;3.33;100.00
47670;BME280;33408;52.062;11.722;2023-04-10T03:32:56;102098.31;;;3.28;100.00
47670;BME280;33408;52.062;11.722;2023-04-10T03:35:22;102098.00;;;3.45;100.00
47670;BME280;33408;52.062;11.722;2023-04-10T03:37:49;102102.88;;;3.37;100.00
47670;BME280;33408;52.062;11.722;2023-04-10T03:40:16;102100.25;;;3.10;100.00
47670;BME280;33408;52.062;11.722;2023-04-10T03:42:44;102093.09;;;3.25;100.00
47670;BME280;33408;52.062;11.722;2023-04-10T03:45:11;102096.47;;;3.24;100.00
47670;BME280;33408;52.062;11.722;2023-04-10T03:47:38;102096.00;;;3.36;100.00
47670;BME280;33408;52.062;11.722;2023-04-10T03:50:05;102087.22;;;3.29;100.00
47670;BME280;33408;52.062;11.722;2023-04-10T03:52:31;102087.84;;;3.22;100.00
47670;BME280;33408;52.062;11.722;2023-04-10T03:54:58;102089.19;;;3.11;100.00
47670;BME280;33408;52.062;11.722;2023-04-10T03:57:24;102087.91;;;2.98;100.00
47670;BME280;33408;52.062;11.722;2023-04-10T03:59:52;102091.69;;;3.09;100.00
47670;BME280;33408;52.062;11.722;2023-04-10T04:02:19;102096.34;;;3.21;100.00
47670;BME280;33408;52.062;11.722;2023-04-10T04:04:46;102084.41;;;3.22;100.00
47670;BME280;33408;52.062;11.722;2023-04-10T04:07:13;102087.97;;;3.25;100.00
47670;BME280;33408;52.062;11.722;2023-04-10T04:09:39;102089.59;;;3.23;100.00
47670;BME280;33408;52.062;11.722;2023-04-10T04:12:06;102083.66;;;3.24;100.00
47670;BME280;33408;52.062;11.722;2023-04-10T04:14:33;102084.28;;;3.17;100.00
47670;BME280;33408;52.062;11.722;2023-04-10T04:17:01;102084.34;;;3.20;100.00
47670;BME280;33408;52.062;11.722;2023-04-10T04:19:28;102084.94;;;3.12;100.00
47670;BME280;33408;52.062;11.722;2023-04-10T04:21:54;102081.56;;;3.13;100.00
47670;BME280;33408;52.062;11.722;2023-04-10T04:24:22;102078.63;;;3.02;100.00
47670;BME280;33408;52.062;11.722;2023-04-10T04:26:48;102082.31;;;3.10;100.00
47670;BME280;33408;52.062;11.722;2023-04-10T04:29:15;102077.06;;;3.07;100.00
47670;BME280;33408;52.062;11.722;2023-04-10T04:31:41;102075.03;;;2.97;100.00
47670;BME280;33408;52.062;11.722;2023-04-10T04:34:09;102074.84;;;3.16;100.00
47670;BME280;33408;52.062;11.722;2023-04-10T04:36:36;102076.47;;;3.14;100.00
47670;BME280;33408;52.062;11.722;2023-04-10T04:39:03;102079.66;;;3.33;100.00
47670;BME280;33408;52.062;11.722;2023-04-10T04:41:29;102075.31;;;3.32;100.00
47670;BME280;33408;52.062;11.722;2023-04-10T04:43:56;102071.03;;;3.31;100.00
47670;BME280;33408;52.062;11.722;2023-04-10T04:46:23;102072.16;;;3.39;100.00
47670;BME280;33408;52.062;11.722;2023-04-10T04:48:49;102065.06;;;3.57;100.00
47670;BME280;33408;52.062;11.722;2023-04-10T04:51:17;102078.75;;;3.58;100.00
47670;BME280;33408;52.062;11.722;2023-04-10T04:53:44;102078.16;;;3.67;100.00
47670;BME280;33408;52.062;11.722;2023-04-10T04:56:11;102084.50;;;3.78;100.00
47670;BME280;33408;52.062;11.722;2023-04-10T04:58:37;102074.72;;;3.93;100.00
47670;BME280;33408;52.062;11.722;2023-04-10T05:01:04;102083.28;;;3.94;100.00
47670;BME280;33408;52.062;11.722;2023-04-10T05:03:31;102074.72;;;3.93;100.00
47670;BME280;33408;52.062;11.722;2023-04-10T05:05:57;102080.34;;;4.10;100.00
47670;BME280;33408;52.062;11.722;2023-04-10T05:08:25;102077.41;;;4.25;100.00
47670;BME280;33408;52.062;11.722;2023-04-10T05:10:52;102077.00;;;4.42;100.00
47670;BME280;33408;52.062;11.722;2023-04-10T05:13:19;102072.03;;;5.11;100.00
47670;BME280;33408;52.062;11.722;2023-04-10T05:15:45;102072.75;;;4.74;100.00
47670;BME280;33408;52.062;11.722;2023-04-10T05:18:12;102073.19;;;4.89;100.00
47670;BME280;33408;52.062;11.722;2023-04-10T05:20:38;102076.44;;;5.16;100.00
47670;BME280;33408;52.062;11.722;2023-04-10T05:23:05;102077.84;;;5.39;100.00
47670;BME280;33408;52.062;11.722;2023-04-10T05:25:34;102080.03;;;5.57;100.00
47670;BME280;33408;52.062;11.722;2023-04-10T05:28:00;102081.59;;;5.51;100.00
47670;BME280;33408;52.062;11.722;2023-04-10T05:30:27;102079.75;;;5.83;100.00
47670;BME280;33408;52.062;11.722;2023-04-10T05:32:53;102083.38;;;6.31;100.00
47670;BME280;33408;52.062;11.722;2023-04-10T05:35:20;102081.56;;;6.25;100.00
47670;BME280;33408;52.062;11.722;2023-04-10T05:37:49;102085.19;;;6.35;100.00
47670;BME280;33408;52.062;11.722;2023-04-10T05:40:15;102084.19;;;5.90;100.00
47670;BME280;33408;52.062;11.722;2023-04-10T05:42:43;102084.28;;;5.93;100.00
47670;BME280;33408;52.062;11.722;2023-04-10T05:45:10;102088.34;;;6.20;100.00
47670;BME280;33408;52.062;11.722;2023-04-10T05:47:39;102084.34;;;6.34;100.00
47670;BME280;33408;52.062;11.722;2023-04-10T05:50:06;102075.00;;;6.39;100.00
47670;BME280;33408;52.062;11.722;2023-04-10T05:52:32;102086.28;;;6.46;100.00
47670;BME280;33408;52.062;11.722;2023-04-10T05:54:59;102078.53;;;6.45;100.00
47670;BME280;33408;52.062;11.722;2023-04-10T05:57:26;102076.34;;;6.65;100.00
47670;BME280;33408;52.062;11.722;2023-04-10T05:59:54;102075.81;;;6.81;100.00
47670;BME280;33408;52.062;11.722;2023-04-10T06:02:20;102075.56;;;6.69;100.00
47670;BME280;33408;52.062;11.722;2023-04-10T06:04:47;102074.78;;;6.71;100.00
47670;BME280;33408;52.062;11.722;2023-04-10T06:07:13;102071.13;;;7.07;100.00
47670;BME280;33408;52.062;11.722;2023-04-10T06:09:40;102075.31;;;7.01;100.00
47670;BME280;33408;52.062;11.722;2023-04-10T06:12:07;102062.78;;;7.22;100.00
47670;BME280;33408;52.062;11.722;2023-04-10T06:14:33;102072.00;;;7.61;100.00
47670;BME280;33408;52.062;11.722;2023-04-10T06:17:01;102064.72;;;7.92;100.00
47670;BME280;33408;52.062;11.722;2023-04-10T06:19:28;102069.09;;;7.99;100.00
47670;BME280;33408;52.062;11.722;2023-04-10T06:21:55;102062.94;;;8.54;100.00
47670;BME280;33408;52.062;11.722;2023-04-10T06:24:21;102057.47;;;9.10;100.00
47670;BME280;33408;52.062;11.722;2023-04-10T06:26:48;102061.19;;;7.87;100.00
47670;BME280;33408;52.062;11.722;2023-04-10T06:29:14;102064.22;;;8.96;100.00
47670;BME280;33408;52.062;11.722;2023-04-10T06:31:42;102057.72;;;8.49;100.00
47670;BME280;33408;52.062;11.722;2023-04-10T06:34:10;102066.22;;;9.23;100.00
47670;BME280;33408;52.062;11.722;2023-04-10T06:36:37;102060.13;;;9.18;100.00
47670;BME280;33408;52.062;11.722;2023-04-10T06:39:03;102059.19;;;9.08;100.00
47670;BME280;33408;52.062;11.722;2023-04-10T06:41:31;102057.41;;;9.04;100.00
47670;BME280;33408;52.062;11.722;2023-04-10T06:43:57;102055.28;;;8.62;100.00
47670;BME280;33408;52.062;11.722;2023-04-10T06:46:26;102058.03;;;8.79;100.00
47670;BME280;33408;52.062;11.722;2023-04-10T06:48:52;102060.56;;;8.75;100.00
47670;BME280;33408;52.062;11.722;2023-04-10T06:51:20;102055.09;;;8.48;100.00
47670;BME280;33408;52.062;11.722;2023-04-10T06:53:47;102058.06;;;8.83;100.00
47670;BME280;33408;52.062;11.722;2023-04-10T06:56:14;102060.91;;;9.09;100.00
47670;BME280;33408;52.062;11.722;2023-04-10T06:58:40;102063.16;;;8.75;100.00
47670;BME280;33408;52.062;11.722;2023-04-10T07:01:07;102063.47;;;9.03;100.00
47670;BME280;33408;52.062;11.722;2023-04-10T07:03:33;102057.38;;;9.01;100.00
47670;BME280;33408;52.062;11.722;2023-04-10T07:06:00;102059.28;;;9.21;100.00
47670;BME280;33408;52.062;11.722;2023-04-10T07:08:28;102062.13;;;9.50;100.00
47670;BME280;33408;52.062;11.722;2023-04-10T07:10:55;102058.38;;;9.17;100.00
47670;BME280;33408;52.062;11.722;2023-04-10T07:13:21;102060.22;;;9.29;100.00
47670;BME280;33408;52.062;11.722;2023-04-10T07:15:48;102050.91;;;9.53;100.00
47670;BME280;33408;52.062;11.722;2023-04-10T07:18:15;102053.41;;;9.43;100.00
47670;BME280;33408;52.062;11.722;2023-04-10T07:20:41;102049.31;;;9.73;100.00
47670;BME280;33408;52.062;11.722;2023-04-10T07:23:08;102050.25;;;9.83;100.00
47670;BME280;33408;52.062;11.722;2023-04-10T07:25:36;102043.25;;;9.68;100.00
47670;BME280;33408;52.062;11.722;2023-04-10T07:28:02;102049.41;;;9.85;100.00
47670;BME280;33408;52.062;11.722;2023-04-10T07:30:29;102049.66;;;10.35;100.00
47670;BME280;33408;52.062;11.722;2023-04-10T07:32:56;102043.63;;;10.40;100.00
47670;BME280;33408;52.062;11.722;2023-04-10T07:35:22;102037.41;;;10.06;100.00
47670;BME280;33408;52.062;11.722;2023-04-10T07:37:49;102043.44;;;10.00;100.00
47670;BME280;33408;52.062;11.722;2023-04-10T07:40:17;102033.13;;;10.10;100.00
47670;BME280;33408;52.062;11.722;2023-04-10T07:42:45;102023.75;;;10.38;100.00
47670;BME280;33408;52.062;11.722;2023-04-10T07:45:11;102024.72;;;10.99;100.00
47670;BME280;33408;52.062;11.722;2023-04-10T07:47:38;102015.22;;;11.18;100.00
47670;BME280;33408;52.062;11.722;2023-04-10T07:50:06;102018.69;;;11.00;100.00
47670;BME280;33408;52.062;11.722;2023-04-10T07:52:33;102005.69;;;11.04;100.00
47670;BME280;33408;52.062;11.722;2023-04-10T07:55:00;102005.69;;;11.23;100.00
47670;BME280;33408;52.062;11.722;2023-04-10T07:57:27;102000.50;;;11.32;100.00
47670;BME280;33408;52.062;11.722;2023-04-10T07:59:55;101997.06;;;11.15;100.00
47670;BME280;33408;52.062;11.722;2023-04-10T08:02:22;102003.97;;;11.00;100.00
47670;BME280;33408;52.062;11.722;2023-04-10T08:04:49;101992.72;;;10.98;100.00
47670;BME280;33408;52.062;11.722;2023-04-10T08:07:17;101989.22;;;11.45;100.00
47670;BME280;33408;52.062;11.722;2023-04-10T08:09:44;101984.03;;;11.28;100.00
47670;BME280;33408;52.062;11.722;2023-04-10T08:12:10;101975.34;;;11.54;100.00
47670;BME280;33408;52.062;11.722;2023-04-10T08:14:39;101980.56;;;11.46;100.00
47670;BME280;33408;52.062;11.722;2023-04-10T08:17:07;101974.38;;;11.91;100.00
47670;BME280;33408;52.062;11.722;2023-04-10T08:19:38;101966.56;;;11.97;100.00
47670;BME280;33408;52.062;11.722;2023-04-10T08:22:05;101972.63;;;11.99;100.00
47670;BME280;33408;52.062;11.722;2023-04-10T08:24:31;101964.81;;;12.00;100.00
47670;BME280;33408;52.062;11.722;2023-04-10T08:26:58;101968.19;;;12.21;100.00
47670;BME280;33408;52.062;11.722;2023-04-10T08:29:24;101968.97;;;12.37;100.00
47670;BME280;33408;52.062;11.722;2023-04-10T08:31:51;101968.91;;;12.46;100.00
47670;BME280;33408;52.062;11.722;2023-04-10T08:34:20;101962.84;;;12.44;100.00
47670;BME280;33408;52.062;11.722;2023-04-10T08:36:48;101961.97;;;12.45;100.00
47670;BME280;33408;52.062;11.722;2023-04-10T08:39:15;101964.53;;;12.54;100.00
47670;BME280;33408;52.062;11.722;2023-04-10T08:41:41;101961.72;;;12.82;100.00
47670;BME280;33408;52.062;11.722;2023-04-10T08:44:08;101957.06;;;13.17;100.00
47670;BME280;33408;52.062;11.722;2023-04-10T08:46:35;101959.59;;;13.26;100.00
47670;BME280;33408;52.062;11.722;2023-04-10T08:49:09;101959.91;;;12.92;99.13
47670;BME280;33408;52.062;11.722;2023-04-10T08:51:41;101958.72;;;13.25;98.57
47670;BME280;33408;52.062;11.722;2023-04-10T08:54:12;101952.63;;;13.26;98.56
47670;BME280;33408;52.062;11.722;2023-04-10T08:56:46;101948.66;;;12.90;98.74
47670;BME280;33408;52.062;11.722;2023-04-10T08:59:15;101944.09;;;13.10;98.37
47670;BME280;33408;52.062;11.722;2023-04-10T09:01:42;101946.53;;;13.30;95.30
47670;BME280;33408;52.062;11.722;2023-04-10T09:04:10;101947.44;;;13.23;97.53
47670;BME280;33408;52.062;11.722;2023-04-10T09:06:38;101945.78;;;13.16;99.16
47670;BME280;33408;52.062;11.722;2023-04-10T09:09:05;101943.63;;;13.60;98.00
47670;BME280;33408;52.062;11.722;2023-04-10T09:11:55;101940.13;;;13.62;95.78
47670;BME280;33408;52.062;11.722;2023-04-10T09:14:26;101936.56;;;13.70;94.33
47670;BME280;33408;52.062;11.722;2023-04-10T09:16:53;101933.59;;;13.96;94.96
47670;BME280;33408;52.062;11.722;2023-04-10T09:19:35;101935.16;;;14.11;94.33
47670;BME280;33408;52.062;11.722;2023-04-10T09:22:03;101928.91;;;14.22;92.47
47670;BME280;33408;52.062;11.722;2023-04-10T09:24:34;101929.34;;;13.90;92.60
47670;BME280;33408;52.062;11.722;2023-04-10T09:27:01;101928.06;;;14.20;90.43
47670;BME280;33408;52.062;11.722;2023-04-10T09:29:40;101917.50;;;14.30;86.92
47670;BME280;33408;52.062;11.722;2023-04-10T09:32:07;101912.06;;;14.44;86.01
47670;BME280;33408;52.062;11.722;2023-04-10T09:34:34;101916.53;;;14.37;86.30
47670;BME280;33408;52.062;11.722;2023-04-10T09:37:00;101907.47;;;14.00;86.03
47670;BME280;33408;52.062;11.722;2023-04-10T09:39:34;101908.81;;;14.29;82.73
47670;BME280;33408;52.062;11.722;2023-04-10T09:42:01;101907.34;;;14.10;85.57
47670;BME280;33408;52.062;11.722;2023-04-10T09:44:29;101900.66;;;13.92;87.08
47670;BME280;33408;52.062;11.722;2023-04-10T09:46:56;101898.88;;;14.54;84.72
47670;BME280;33408;52.062;11.722;2023-04-10T09:49:23;101889.22;;;14.59;78.97
47670;BME280;33408;52.062;11.722;2023-04-10T09:51:50;101886.56;;;14.63;78.86
47670;BME280;33408;52.062;11.722;2023-04-10T09:54:16;101879.13;;;14.92;79.16
47670;BME280;33408;52.062;11.722;2023-04-10T09:56:44;101876.03;;;14.69;78.50
47670;BME280;33408;52.062;11.722;2023-04-10T09:59:12;101872.09;;;14.41;79.58
47670;BME280;33408;52.062;11.722;2023-04-10T10:01:40;101856.56;;;14.34;76.91
47670;BME280;33408;52.062;11.722;2023-04-10T10:04:08;101858.59;;;14.71;75.25
47670;BME280;33408;52.062;11.722;2023-04-10T10:06:37;101862.03;;;14.73;73.27
47670;BME280;33408;52.062;11.722;2023-04-10T10:09:04;101859.41;;;15.20;72.14
47670;BME280;33408;52.062;11.722;2023-04-10T10:11:33;101855.13;;;15.17;69.44
47670;BME280;33408;52.062;11.722;2023-04-10T10:14:05;101849.06;;;15.17;67.11
47670;BME280;33408;52.062;11.722;2023-04-10T10:16:38;101841.78;;;15.31;67.95
47670;BME280;33408;52.062;11.722;2023-04-10T10:19:11;101844.50;;;15.26;67.66
47670;BME280;33408;52.062;11.722;2023-04-10T10:21:42;101844.13;;;15.45;69.17
47670;BME280;33408;52.062;11.722;2023-04-10T10:24:10;101831.38;;;14.84;68.69
47670;BME280;33408;52.062;11.722;2023-04-10T10:26:39;101832.84;;;15.43;68.90
47670;BME280;33408;52.062;11.722;2023-04-10T10:29:08;101828.97;;;15.61;66.22
47670;BME280;33408;52.062;11.722;2023-04-10T10:31:35;101831.94;;;15.44;65.72
47670;BME280;33408;52.062;11.722;2023-04-10T10:34:03;101822.09;;;15.97;65.75
47670;BME280;33408;52.062;11.722;2023-04-10T10:36:32;101821.84;;;16.07;66.88
47670;BME280;33408;52.062;11.722;2023-04-10T10:39:10;101821.13;;;16.00;63.57
47670;BME280;33408;52.062;11.722;2023-04-10T10:41:46;101810.34;;;16.14;64.07
47670;BME280;33408;52.062;11.722;2023-04-10T10:44:25;101817.41;;;15.71;66.59
47670;BME280;33408;52.062;11.722;2023-04-10T10:47:02;101809.84;;;15.98;64.94
47670;BME280;33408;52.062;11.722;2023-04-10T10:49:52;101809.13;;;15.93;64.60
47670;BME280;33408;52.062;11.722;2023-04-10T10:52:55;101808.00;;;15.64;63.19
47670;BME280;33408;52.062;11.722;2023-04-10T10:55:29;101800.47;;;15.91;62.14
47670;BME280;33408;52.062;11.722;2023-04-10T10:57:57;101809.25;;;16.22;63.72
47670;BME280;33408;52.062;11.722;2023-04-10T11:03:43;101795.78;;;16.03;62.03
47670;BME280;33408;52.062;11.722;2023-04-10T11:06:11;101798.22;;;16.10;63.49
47670;BME280;33408;52.062;11.722;2023-04-10T11:08:42;101783.56;;;16.04;62.33
47670;BME280;33408;52.062;11.722;2023-04-10T11:11:31;101792.38;;;16.00;64.19
47670;BME280;33408;52.062;11.722;2023-04-10T11:14:18;101773.31;;;15.95;63.29
47670;BME280;33408;52.062;11.722;2023-04-10T11:16:46;101771.81;;;16.20;61.87
47670;BME280;33408;52.062;11.722;2023-04-10T11:19:14;101763.34;;;16.11;61.26
47670;BME280;33408;52.062;11.722;2023-04-10T11:22:01;101753.00;;;16.40;60.51
47670;BME280;33408;52.062;11.722;2023-04-10T11:24:29;101745.84;;;16.78;61.00
47670;BME280;33408;52.062;11.722;2023-04-10T11:27:36;101747.69;;;16.75;60.07
47670;BME280;33408;52.062;11.722;2023-04-10T11:30:24;101738.56;;;16.58;59.09
47670;BME280;33408;52.062;11.722;2023-04-10T11:32:53;101731.94;;;16.44;59.17
47670;BME280;33408;52.062;11.722;2023-04-10T11:35:20;101726.19;;;16.31;58.21
47670;BME280;33408;52.062;11.722;2023-04-10T11:37:46;101728.03;;;16.27;60.83
47670;BME280;33408;52.062;11.722;2023-04-10T11:40:13;101727.50;;;16.78;60.46
47670;BME280;33408;52.062;11.722;2023-04-10T11:42:40;101717.56;;;16.60;58.52
47670;BME280;33408;52.062;11.722;2023-04-10T11:45:24;101714.72;;;16.68;58.62
47670;BME280;33408;52.062;11.722;2023-04-10T11:47:53;101708.75;;;16.31;56.68
47670;BME280;33408;52.062;11.722;2023-04-10T11:50:20;101700.66;;;16.40;58.55
47670;BME280;33408;52.062;11.722;2023-04-10T11:52:47;101695.84;;;16.56;58.25
47670;BME280;33408;52.062;11.722;2023-04-10T11:55:14;101694.25;;;16.51;57.48
47670;BME280;33408;52.062;11.722;2023-04-10T11:57:42;101683.78;;;16.51;57.59
47670;BME280;33408;52.062;11.722;2023-04-10T12:00:10;101689.41;;;16.68;56.09
47670;BME280;33408;52.062;11.722;2023-04-10T12:02:49;101676.19;;;16.73;58.55
47670;BME280;33408;52.062;11.722;2023-04-10T12:05:18;101674.41;;;16.73;56.13
47670;BME280;33408;52.062;11.722;2023-04-10T12:07:44;101669.81;;;16.82;56.26
47670;BME280;33408;52.062;11.722;2023-04-10T12:10:11;101661.53;;;16.97;55.84
47670;BME280;33408;52.062;11.722;2023-04-10T12:12:38;101650.22;;;16.95;55.03
47670;BME280;33408;52.062;11.722;2023-04-10T12:15:26;101654.91;;;16.85;54.27
47670;BME280;33408;52.062;11.722;2023-04-10T12:17:53;101646.16;;;16.86;56.77
47670;BME280;33408;52.062;11.722;2023-04-10T12:20:22;101637.59;;;16.80;56.47
47670;BME280;33408;52.062;11.722;2023-04-10T12:22:53;101630.44;;;16.86;54.47
47670;BME280;33408;52.062;11.722;2023-04-10T12:25:20;101634.84;;;16.84;55.66
47670;BME280;33408;52.062;11.722;2023-04-10T12:27:48;101630.72;;;17.05;55.41
47670;BME280;33408;52.062;11.722;2023-04-10T12:30:15;101613.28;;;17.04;55.82
47670;BME280;33408;52.062;11.722;2023-04-10T12:32:50;101615.25;;;16.98;55.51
47670;BME280;33408;52.062;11.722;2023-04-10T12:35:17;101623.84;;;17.01;56.53
47670;BME280;33408;52.062;11.722;2023-04-10T12:37:49;101608.41;;;17.20;56.68
47670;BME280;33408;52.062;11.722;2023-04-10T12:40:16;101604.28;;;17.40;56.41
47670;BME280;33408;52.062;11.722;2023-04-10T12:42:44;101601.75;;;17.63;55.39
47670;BME280;33408;52.062;11.722;2023-04-10T12:45:11;101610.00;;;17.26;55.44
47670;BME280;33408;52.062;11.722;2023-04-10T12:47:43;101594.56;;;17.43;56.89
47670;BME280;33408;52.062;11.722;2023-04-10T12:50:12;101600.47;;;17.23;56.72